createdAt,value
2017-10-26T00:00:39.211Z,1016.1
2017-10-26T00:01:39.204Z,1016.12
2017-10-26T00:02:39.187Z,1016.17
2017-10-26T00:03:39.168Z,1016.15
2017-10-26T00:04:39.156Z,1016.13
2017-10-26T00:05:39.139Z,1016.15
2017-10-26T00:06:39.126Z,1016.16
2017-10-26T00:07:39.115Z,1016.12
2017-10-26T00:08:39.103Z,1016.12
2017-10-26T00:09:39.101Z,1016.12
2017-10-26T00:10:39.070Z,1016.12
2017-10-26T00:11:39.057Z,1016.1
2017-10-26T00:12:39.048Z,1016.1
2017-10-26T00:13:39.030Z,1016.09
2017-10-26T00:14:39.013Z,1016.14
2017-10-26T00:15:39.005Z,1016.14
2017-10-26T00:16:38.985Z,1016.12
2017-10-26T00:17:38.978Z,1016.17
2017-10-26T00:18:38.957Z,1016.17
2017-10-26T00:19:38.943Z,1016.15
2017-10-26T00:20:38.929Z,1016.15
2017-10-26T00:21:38.917Z,1016.1
2017-10-26T00:22:38.901Z,1016.13
2017-10-26T00:23:38.889Z,1016.12
2017-10-26T00:24:38.883Z,1016.11
2017-10-26T00:25:38.864Z,1016.12
2017-10-26T00:26:38.846Z,1016.12
2017-10-26T00:27:38.833Z,1016.08
2017-10-26T00:28:38.825Z,1016.15
2017-10-26T00:29:38.803Z,1016.14
2017-10-26T00:30:38.792Z,1016.15
2017-10-26T00:31:38.775Z,1016.16
2017-10-26T00:32:38.762Z,1016.17
2017-10-26T00:33:38.746Z,1016.17
2017-10-26T00:34:38.733Z,1016.17
2017-10-26T00:35:38.720Z,1016.17
2017-10-26T00:36:38.704Z,1016.17
2017-10-26T00:37:38.704Z,1016.2
2017-10-26T00:38:38.674Z,1016.15
2017-10-26T00:39:38.664Z,1016.17
2017-10-26T00:40:38.650Z,1016.18
2017-10-26T00:41:38.636Z,1016.19
2017-10-26T00:42:38.624Z,1016.21
2017-10-26T00:43:38.612Z,1016.25
2017-10-26T00:44:38.590Z,1016.24
2017-10-26T00:45:38.578Z,1016.24
2017-10-26T00:46:38.563Z,1016.18
2017-10-26T00:47:38.553Z,1016.19
2017-10-26T00:48:38.534Z,1016.23
2017-10-26T00:49:38.525Z,1016.23
2017-10-26T00:50:38.515Z,1016.21
2017-10-26T00:51:38.493Z,1016.2
2017-10-26T00:52:38.487Z,1016.18
2017-10-26T00:53:38.464Z,1016.14
2017-10-26T00:54:38.451Z,1016.11
2017-10-26T00:55:38.440Z,1016.12
2017-10-26T00:56:38.423Z,1016.1
2017-10-26T00:57:38.407Z,1016.15
2017-10-26T00:58:38.392Z,1016.14
2017-10-26T00:59:38.381Z,1016.17
2017-10-26T01:00:38.365Z,1016.19
2017-10-26T01:01:38.357Z,1016.2
2017-10-26T01:02:38.335Z,1016.22
2017-10-26T01:03:38.324Z,1016.22
2017-10-26T01:04:38.309Z,1016.24
2017-10-26T01:05:38.297Z,1016.17
2017-10-26T01:06:38.289Z,1016.14
2017-10-26T01:07:38.264Z,1016.12
2017-10-26T01:08:38.251Z,1016.13
2017-10-26T01:09:38.240Z,1016.09
2017-10-26T01:10:38.223Z,1016.13
2017-10-26T01:11:38.210Z,1016.11
2017-10-26T01:12:38.196Z,1016.08
2017-10-26T01:13:38.183Z,1016.06
2017-10-26T01:14:38.166Z,1016.07
2017-10-26T01:15:38.154Z,1016.05
2017-10-26T01:16:38.139Z,1016.09
2017-10-26T01:17:38.127Z,1016.11
2017-10-26T01:18:38.109Z,1016.11
2017-10-26T01:19:38.098Z,1016.1
2017-10-26T01:20:38.085Z,1016.12
2017-10-26T01:21:38.074Z,1016.12
2017-10-26T01:22:38.058Z,1016.08
2017-10-26T01:23:38.039Z,1016.15
2017-10-26T01:24:38.026Z,1016.13
2017-10-26T01:25:38.215Z,1016.14
2017-10-26T01:26:37.999Z,1016.18
2017-10-26T01:27:37.982Z,1016.16
2017-10-26T01:28:37.972Z,1016.14
2017-10-26T01:29:37.955Z,1016.19
2017-10-26T01:30:37.947Z,1016.14
2017-10-26T01:31:37.927Z,1016.14
2017-10-26T01:32:37.932Z,1016.12
2017-10-26T01:33:37.901Z,1016.15
2017-10-26T01:34:37.884Z,1016.11
2017-10-26T01:35:37.869Z,1016.13
2017-10-26T01:36:37.857Z,1016.13
2017-10-26T01:37:37.842Z,1016.13
2017-10-26T01:38:37.846Z,1016.15
2017-10-26T01:39:37.826Z,1016.11
2017-10-26T01:40:37.798Z,1016.12
2017-10-26T01:41:37.784Z,1016.07
2017-10-26T01:42:37.773Z,1016.1
2017-10-26T01:43:37.760Z,1016.12
2017-10-26T01:44:37.743Z,1016.09
2017-10-26T01:45:37.731Z,1016.04
2017-10-26T01:46:37.716Z,1016.02
2017-10-26T01:47:37.703Z,1016.03
2017-10-26T01:48:37.687Z,1016.04
2017-10-26T01:49:37.674Z,1016.04
2017-10-26T01:50:37.659Z,1016.05
2017-10-26T01:51:37.646Z,1016.05
2017-10-26T01:52:37.629Z,1016.03
2017-10-26T01:53:37.616Z,1016.01
2017-10-26T01:54:37.607Z,1016.03
2017-10-26T01:55:37.595Z,1016
2017-10-26T01:56:37.580Z,1016
2017-10-26T01:57:37.561Z,1015.99
2017-10-26T01:58:37.546Z,1016
2017-10-26T01:59:37.533Z,1016.05
2017-10-26T02:00:37.522Z,1016.05
2017-10-26T02:01:37.503Z,1016.03
2017-10-26T02:02:37.490Z,1015.97
2017-10-26T02:03:37.477Z,1015.99
2017-10-26T02:04:37.462Z,1015.98
2017-10-26T02:05:37.448Z,1016.01
2017-10-26T02:06:37.436Z,1016.04
2017-10-26T02:07:37.426Z,1016.07
2017-10-26T02:08:37.410Z,1016.06
2017-10-26T02:09:37.393Z,1015.99
2017-10-26T02:10:37.380Z,1016.04
2017-10-26T02:11:37.365Z,1016.01
2017-10-26T02:12:37.357Z,1016.04
2017-10-26T02:13:37.337Z,1016.02
2017-10-26T02:14:37.323Z,1016.03
2017-10-26T02:15:37.317Z,1016.07
2017-10-26T02:16:37.298Z,1016.01
2017-10-26T02:17:37.285Z,1015.98
2017-10-26T02:18:37.270Z,1016
2017-10-26T02:19:37.257Z,1016.02
2017-10-26T02:20:37.240Z,1016
2017-10-26T02:21:37.226Z,1016.04
2017-10-26T02:22:37.214Z,1016.07
2017-10-26T02:23:37.198Z,1016.05
2017-10-26T02:24:37.183Z,1016.09
2017-10-26T02:25:37.170Z,1016.03
2017-10-26T02:26:37.157Z,1015.99
2017-10-26T02:27:37.144Z,1016.05
2017-10-26T02:28:37.129Z,1016.05
2017-10-26T02:29:37.116Z,1016.06
2017-10-26T02:30:37.106Z,1016.16
2017-10-26T02:31:37.091Z,1016.13
2017-10-26T02:32:37.077Z,1016.09
2017-10-26T02:33:37.067Z,1016.1
2017-10-26T02:34:37.044Z,1016.03
2017-10-26T02:35:37.037Z,1016.04
2017-10-26T02:36:37.019Z,1016.01
2017-10-26T02:37:37.006Z,1015.96
2017-10-26T02:38:36.990Z,1015.97
2017-10-26T02:39:36.981Z,1015.96
2017-10-26T02:40:36.966Z,1015.96
2017-10-26T02:41:36.959Z,1015.93
2017-10-26T02:42:36.941Z,1015.93
2017-10-26T02:43:36.934Z,1015.86
2017-10-26T02:44:36.908Z,1015.87
2017-10-26T02:45:36.894Z,1015.87
2017-10-26T02:46:36.881Z,1015.81
2017-10-26T02:47:36.866Z,1015.83
2017-10-26T02:48:36.852Z,1015.79
2017-10-26T02:49:36.841Z,1015.78
2017-10-26T02:50:36.825Z,1015.79
2017-10-26T02:51:36.810Z,1015.77
2017-10-26T02:52:36.798Z,1015.76
2017-10-26T02:53:36.783Z,1015.76
2017-10-26T02:54:36.770Z,1015.74
2017-10-26T02:55:36.756Z,1015.73
2017-10-26T02:56:36.749Z,1015.73
2017-10-26T02:57:36.729Z,1015.72
2017-10-26T02:58:36.715Z,1015.71
2017-10-26T02:59:36.710Z,1015.75
2017-10-26T03:00:36.686Z,1015.79
2017-10-26T03:01:36.672Z,1015.82
2017-10-26T03:02:36.660Z,1015.83
2017-10-26T03:03:36.646Z,1015.83
2017-10-26T03:04:36.632Z,1015.91
2017-10-26T03:05:36.619Z,1015.9
2017-10-26T03:06:36.605Z,1015.89
2017-10-26T03:07:36.590Z,1015.87
2017-10-26T03:08:36.579Z,1015.84
2017-10-26T03:09:36.565Z,1015.82
2017-10-26T03:10:36.553Z,1015.79
2017-10-26T03:11:36.540Z,1015.73
2017-10-26T03:12:36.523Z,1015.68
2017-10-26T03:13:36.511Z,1015.58
2017-10-26T03:14:36.497Z,1015.52
2017-10-26T03:15:36.482Z,1015.51
2017-10-26T03:16:36.469Z,1015.51
2017-10-26T03:17:36.454Z,1015.56
2017-10-26T03:18:36.442Z,1015.59
2017-10-26T03:19:36.429Z,1015.64
2017-10-26T03:20:36.416Z,1015.7
2017-10-26T03:21:36.402Z,1015.81
2017-10-26T03:22:36.387Z,1015.9
2017-10-26T03:23:36.372Z,1015.92
2017-10-26T03:24:36.359Z,1015.94
2017-10-26T03:25:36.345Z,1015.94
2017-10-26T03:26:36.333Z,1015.94
2017-10-26T03:27:36.326Z,1015.97
2017-10-26T03:28:36.306Z,1015.96
2017-10-26T03:29:36.293Z,1015.94
2017-10-26T03:30:36.279Z,1015.89
2017-10-26T03:31:36.264Z,1015.93
2017-10-26T03:32:36.253Z,1015.93
2017-10-26T03:33:36.237Z,1015.89
2017-10-26T03:34:36.224Z,1015.96
2017-10-26T03:35:36.212Z,1015.93
2017-10-26T03:36:36.196Z,1015.91
2017-10-26T03:37:36.185Z,1015.89
2017-10-26T03:38:36.169Z,1015.84
2017-10-26T03:39:36.156Z,1015.85
2017-10-26T03:40:36.142Z,1015.85
2017-10-26T03:41:36.129Z,1015.88
2017-10-26T03:42:36.116Z,1015.87
2017-10-26T03:43:36.108Z,1015.92
2017-10-26T03:44:36.089Z,1015.89
2017-10-26T03:45:36.075Z,1015.91
2017-10-26T03:46:36.072Z,1015.9
2017-10-26T03:47:36.053Z,1015.91
2017-10-26T03:48:36.036Z,1015.91
2017-10-26T03:49:36.021Z,1015.93
2017-10-26T03:50:36.010Z,1015.87
2017-10-26T03:51:35.995Z,1015.86
2017-10-26T03:52:35.982Z,1015.88
2017-10-26T03:53:35.967Z,1015.84
2017-10-26T03:54:35.953Z,1015.85
2017-10-26T03:55:35.940Z,1015.89
2017-10-26T03:56:35.925Z,1015.87
2017-10-26T03:57:35.912Z,1015.93
2017-10-26T03:58:35.899Z,1015.91
2017-10-26T03:59:35.884Z,1015.89
2017-10-26T04:00:35.872Z,1015.9
2017-10-26T04:01:35.857Z,1015.9
2017-10-26T04:02:35.846Z,1015.88
2017-10-26T04:03:35.832Z,1015.84
2017-10-26T04:04:35.815Z,1015.87
2017-10-26T04:05:35.809Z,1015.84
2017-10-26T04:06:35.789Z,1015.88
2017-10-26T04:07:35.775Z,1015.88
2017-10-26T04:08:35.762Z,1015.88
2017-10-26T04:09:35.751Z,1015.88
2017-10-26T04:10:35.733Z,1015.86
2017-10-26T04:11:35.721Z,1015.84
2017-10-26T04:12:35.707Z,1015.79
2017-10-26T04:13:35.697Z,1015.84
2017-10-26T04:14:35.677Z,1015.82
2017-10-26T04:15:35.668Z,1015.82
2017-10-26T04:16:35.651Z,1015.85
2017-10-26T04:17:35.640Z,1015.84
2017-10-26T04:18:35.623Z,1015.79
2017-10-26T04:19:35.609Z,1015.77
2017-10-26T04:20:35.598Z,1015.75
2017-10-26T04:21:35.581Z,1015.76
2017-10-26T04:22:35.569Z,1015.74
2017-10-26T04:23:35.555Z,1015.76
2017-10-26T04:24:35.542Z,1015.84
2017-10-26T04:25:35.527Z,1015.86
2017-10-26T04:26:35.515Z,1015.87
2017-10-26T04:27:35.500Z,1015.9
2017-10-26T04:28:35.488Z,1015.93
2017-10-26T04:29:35.472Z,1015.93
2017-10-26T04:30:35.458Z,1015.91
2017-10-26T04:31:35.446Z,1015.96
2017-10-26T04:32:35.429Z,1015.92
2017-10-26T04:33:35.415Z,1015.92
2017-10-26T04:34:35.407Z,1015.88
2017-10-26T04:35:35.390Z,1015.82
2017-10-26T04:36:35.375Z,1015.85
2017-10-26T04:37:35.364Z,1015.82
2017-10-26T04:38:35.347Z,1015.77
2017-10-26T04:39:35.332Z,1015.71
2017-10-26T04:40:35.319Z,1015.78
2017-10-26T04:41:35.307Z,1015.71
2017-10-26T04:42:35.296Z,1015.72
2017-10-26T04:43:35.279Z,1015.7
2017-10-26T04:44:35.267Z,1015.63
2017-10-26T04:45:35.250Z,1015.63
2017-10-26T04:46:35.237Z,1015.65
2017-10-26T04:47:35.225Z,1015.63
2017-10-26T04:48:35.209Z,1015.6
2017-10-26T04:49:35.196Z,1015.56
2017-10-26T04:50:35.184Z,1015.56
2017-10-26T04:51:35.170Z,1015.55
2017-10-26T04:52:35.155Z,1015.46
2017-10-26T04:53:35.141Z,1015.48
2017-10-26T04:54:35.127Z,1015.47
2017-10-26T04:55:35.113Z,1015.48
2017-10-26T04:56:35.102Z,1015.51
2017-10-26T04:57:35.088Z,1015.52
2017-10-26T04:58:35.072Z,1015.53
2017-10-26T04:59:35.058Z,1015.49
2017-10-26T05:00:35.043Z,1015.48
2017-10-26T05:01:35.037Z,1015.47
2017-10-26T05:02:35.018Z,1015.49
2017-10-26T05:03:35.003Z,1015.51
2017-10-26T05:04:34.988Z,1015.55
2017-10-26T05:05:34.976Z,1015.55
2017-10-26T05:06:34.962Z,1015.55
2017-10-26T05:07:34.946Z,1015.6
2017-10-26T05:08:34.933Z,1015.62
2017-10-26T05:09:34.919Z,1015.68
2017-10-26T05:10:34.904Z,1015.67
2017-10-26T05:11:34.900Z,1015.67
2017-10-26T05:12:34.886Z,1015.7
2017-10-26T05:13:34.864Z,1015.71
2017-10-26T05:14:34.850Z,1015.74
2017-10-26T05:15:34.840Z,1015.74
2017-10-26T05:16:34.821Z,1015.77
2017-10-26T05:17:34.808Z,1015.78
2017-10-26T05:18:34.797Z,1015.8
2017-10-26T05:19:34.791Z,1015.81
2017-10-26T05:20:34.770Z,1015.77
2017-10-26T05:21:34.755Z,1015.8
2017-10-26T05:22:34.744Z,1015.74
2017-10-26T05:23:34.730Z,1015.72
2017-10-26T05:24:34.713Z,1015.76
2017-10-26T05:25:34.705Z,1015.76
2017-10-26T05:26:34.687Z,1015.69
2017-10-26T05:27:34.670Z,1015.68
2017-10-26T05:28:34.660Z,1015.69
2017-10-26T05:29:34.645Z,1015.71
2017-10-26T05:30:34.628Z,1015.7
2017-10-26T05:31:34.623Z,1015.68
2017-10-26T05:32:34.605Z,1015.61
2017-10-26T05:33:34.590Z,1015.63
2017-10-26T05:34:34.576Z,1015.58
2017-10-26T05:35:34.565Z,1015.54
2017-10-26T05:36:34.548Z,1015.52
2017-10-26T05:37:34.538Z,1015.52
2017-10-26T05:38:34.518Z,1015.59
2017-10-26T05:39:34.503Z,1015.55
2017-10-26T05:40:34.491Z,1015.6
2017-10-26T05:41:34.494Z,1015.56
2017-10-26T05:42:34.461Z,1015.6
2017-10-26T05:43:34.452Z,1015.59
2017-10-26T05:44:34.438Z,1015.64
2017-10-26T05:45:34.419Z,1015.66
2017-10-26T05:46:34.406Z,1015.67
2017-10-26T05:47:34.392Z,1015.66
2017-10-26T05:48:34.381Z,1015.62
2017-10-26T05:49:34.363Z,1015.57
2017-10-26T05:50:34.353Z,1015.49
2017-10-26T05:51:34.338Z,1015.43
2017-10-26T05:52:34.329Z,1015.43
2017-10-26T05:53:34.316Z,1015.4
2017-10-26T05:54:34.304Z,1015.36
2017-10-26T05:55:34.286Z,1015.35
2017-10-26T05:56:34.267Z,1015.31
2017-10-26T05:57:34.253Z,1015.33
2017-10-26T05:58:34.241Z,1015.37
2017-10-26T05:59:34.228Z,1015.4
2017-10-26T06:00:34.214Z,1015.45
2017-10-26T06:01:34.202Z,1015.41
2017-10-26T06:02:34.183Z,1015.38
2017-10-26T06:03:34.173Z,1015.37
2017-10-26T06:04:34.157Z,1015.34
2017-10-26T06:05:34.144Z,1015.32
2017-10-26T06:06:34.128Z,1015.28
2017-10-26T06:07:34.114Z,1015.26
2017-10-26T06:08:34.101Z,1015.26
2017-10-26T06:09:34.088Z,1015.26
2017-10-26T06:10:34.075Z,1015.3
2017-10-26T06:11:34.060Z,1015.28
2017-10-26T06:12:34.045Z,1015.31
2017-10-26T06:13:34.034Z,1015.27
2017-10-26T06:14:34.019Z,1015.3
2017-10-26T06:15:34.003Z,1015.28
2017-10-26T06:16:33.991Z,1015.36
2017-10-26T06:17:33.977Z,1015.34
2017-10-26T06:18:33.962Z,1015.29
2017-10-26T06:19:33.946Z,1015.29
2017-10-26T06:20:33.938Z,1015.27
2017-10-26T06:21:33.920Z,1015.26
2017-10-26T06:22:33.903Z,1015.28
2017-10-26T06:23:33.890Z,1015.3
2017-10-26T06:24:33.881Z,1015.35
2017-10-26T06:25:33.866Z,1015.41
2017-10-26T06:26:33.855Z,1015.41
2017-10-26T06:27:33.837Z,1015.42
2017-10-26T06:28:33.823Z,1015.45
2017-10-26T06:29:33.807Z,1015.46
2017-10-26T06:30:33.792Z,1015.44
2017-10-26T06:31:33.778Z,1015.45
2017-10-26T06:32:33.765Z,1015.51
2017-10-26T06:33:33.752Z,1015.57
2017-10-26T06:34:33.736Z,1015.52
2017-10-26T06:35:33.726Z,1015.5
2017-10-26T06:36:33.710Z,1015.5
2017-10-26T06:37:33.694Z,1015.47
2017-10-26T06:38:33.681Z,1015.48
2017-10-26T06:39:33.670Z,1015.46
2017-10-26T06:40:33.652Z,1015.44
2017-10-26T06:41:33.638Z,1015.46
2017-10-26T06:42:33.644Z,1015.46
2017-10-26T06:43:33.613Z,1015.47
2017-10-26T06:44:33.599Z,1015.49
2017-10-26T06:45:33.588Z,1015.49
2017-10-26T06:46:33.571Z,1015.5
2017-10-26T06:47:33.554Z,1015.55
2017-10-26T06:48:33.539Z,1015.5
2017-10-26T06:49:33.529Z,1015.52
2017-10-26T06:50:33.516Z,1015.53
2017-10-26T06:51:33.499Z,1015.53
2017-10-26T06:52:33.484Z,1015.57
2017-10-26T06:53:33.470Z,1015.6
2017-10-26T06:54:33.456Z,1015.67
2017-10-26T06:55:33.446Z,1015.76
2017-10-26T06:56:33.433Z,1015.8
2017-10-26T06:57:33.416Z,1015.89
2017-10-26T06:58:33.406Z,1015.88
2017-10-26T06:59:33.389Z,1015.91
2017-10-26T07:00:33.375Z,1015.95
2017-10-26T07:01:33.362Z,1015.97
2017-10-26T07:02:33.349Z,1015.99
2017-10-26T07:03:33.339Z,1016.03
2017-10-26T07:04:33.322Z,1016.05
2017-10-26T07:05:33.304Z,1016.05
2017-10-26T07:06:33.292Z,1016.08
2017-10-26T07:07:33.285Z,1016.07
2017-10-26T07:08:33.263Z,1016.03
2017-10-26T07:09:33.256Z,1016.06
2017-10-26T07:10:33.238Z,1016.01
2017-10-26T07:11:33.221Z,1016.05
2017-10-26T07:12:33.212Z,1016.06
2017-10-26T07:13:33.194Z,1016.08
2017-10-26T07:14:33.180Z,1016.06
2017-10-26T07:15:33.168Z,1016.03
2017-10-26T07:16:33.155Z,1016.06
2017-10-26T07:17:33.139Z,1016.08
2017-10-26T07:18:33.129Z,1016.05
2017-10-26T07:19:33.111Z,1016.03
2017-10-26T07:20:33.098Z,1016.06
2017-10-26T07:21:33.083Z,1016.09
2017-10-26T07:22:33.070Z,1016.16
2017-10-26T07:23:33.060Z,1016.18
2017-10-26T07:24:33.043Z,1016.18
2017-10-26T07:25:33.032Z,1016.11
2017-10-26T07:26:33.226Z,1016.14
2017-10-26T07:27:33.000Z,1016.18
2017-10-26T07:28:32.986Z,1016.18
2017-10-26T07:29:32.972Z,1016.13
2017-10-26T07:30:32.959Z,1016.11
2017-10-26T07:31:32.946Z,1016.1
2017-10-26T07:32:32.932Z,1016.1
2017-10-26T07:33:32.918Z,1016.07
2017-10-26T07:34:32.910Z,1016.07
2017-10-26T07:35:32.896Z,1015.98
2017-10-26T07:36:32.883Z,1015.98
2017-10-26T07:37:32.864Z,1015.93
2017-10-26T07:38:32.849Z,1015.96
2017-10-26T07:39:32.836Z,1015.96
2017-10-26T07:40:32.827Z,1016.01
2017-10-26T07:41:32.810Z,1015.96
2017-10-26T07:42:32.793Z,1015.97
2017-10-26T07:43:32.780Z,1015.98
2017-10-26T07:44:32.767Z,1015.98
2017-10-26T07:45:32.756Z,1016
2017-10-26T07:46:32.739Z,1015.99
2017-10-26T07:47:32.726Z,1015.98
2017-10-26T07:48:32.712Z,1015.97
2017-10-26T07:49:32.699Z,1015.98
2017-10-26T07:50:32.687Z,1015.91
2017-10-26T07:51:32.677Z,1015.93
2017-10-26T07:52:32.659Z,1015.89
2017-10-26T07:53:32.643Z,1015.92
2017-10-26T07:54:32.632Z,1015.88
2017-10-26T07:55:32.618Z,1015.91
2017-10-26T07:56:32.606Z,1015.81
2017-10-26T07:57:32.591Z,1015.84
2017-10-26T07:58:32.583Z,1015.81
2017-10-26T07:59:32.565Z,1015.84
2017-10-26T08:00:32.551Z,1015.84
2017-10-26T08:01:32.539Z,1015.81
2017-10-26T08:02:32.525Z,1015.84
2017-10-26T08:03:32.517Z,1015.86
2017-10-26T08:04:32.499Z,1015.83
2017-10-26T08:05:32.486Z,1015.9
2017-10-26T08:06:32.473Z,1015.89
2017-10-26T08:07:32.466Z,1015.86
2017-10-26T08:08:32.448Z,1015.87
2017-10-26T08:09:32.436Z,1015.89
2017-10-26T08:10:32.428Z,1015.89
2017-10-26T08:11:32.415Z,1015.87
2017-10-26T08:12:32.396Z,1015.83
2017-10-26T08:13:32.381Z,1015.87
2017-10-26T08:14:32.370Z,1015.88
2017-10-26T08:15:32.357Z,1015.87
2017-10-26T08:16:32.344Z,1015.9
2017-10-26T08:17:32.330Z,1015.9
2017-10-26T08:18:32.327Z,1015.9
2017-10-26T08:19:32.307Z,1015.96
2017-10-26T08:20:32.292Z,1015.89
2017-10-26T08:21:32.279Z,1015.89
2017-10-26T08:22:32.264Z,1015.85
2017-10-26T08:23:32.253Z,1015.86
2017-10-26T08:24:32.239Z,1015.89
2017-10-26T08:25:32.227Z,1015.93
2017-10-26T08:26:32.212Z,1015.85
2017-10-26T08:27:32.203Z,1015.94
2017-10-26T08:28:32.211Z,1015.95
2017-10-26T08:29:32.190Z,1015.95
2017-10-26T08:30:32.164Z,1015.92
2017-10-26T08:31:32.151Z,1015.93
2017-10-26T08:32:32.138Z,1015.94
2017-10-26T08:33:32.130Z,1015.95
2017-10-26T08:34:32.113Z,1015.91
2017-10-26T08:35:32.101Z,1015.92
2017-10-26T08:36:32.091Z,1015.89
2017-10-26T08:37:32.076Z,1015.88
2017-10-26T08:38:32.063Z,1015.89
2017-10-26T08:39:32.051Z,1015.89
2017-10-26T08:40:32.038Z,1015.9
2017-10-26T08:41:32.025Z,1015.93
2017-10-26T08:42:32.012Z,1015.93
2017-10-26T08:43:32.005Z,1015.95
2017-10-26T08:44:31.986Z,1015.88
2017-10-26T08:45:31.977Z,1015.89
2017-10-26T08:46:31.964Z,1015.85
2017-10-26T08:47:31.950Z,1015.86
2017-10-26T08:48:31.938Z,1015.83
2017-10-26T08:49:31.927Z,1015.87
2017-10-26T08:50:31.916Z,1015.84
2017-10-26T08:51:31.903Z,1015.82
2017-10-26T08:52:31.886Z,1015.85
2017-10-26T08:53:31.882Z,1015.88
2017-10-26T08:54:31.918Z,1015.88
2017-10-26T08:55:31.848Z,1015.86
2017-10-26T08:56:31.839Z,1015.85
2017-10-26T08:57:31.824Z,1015.84
2017-10-26T08:58:31.814Z,1015.83
2017-10-26T08:59:31.799Z,1015.83
2017-10-26T09:00:31.786Z,1015.84
2017-10-26T09:01:31.774Z,1015.82
2017-10-26T09:02:31.760Z,1015.87
2017-10-26T09:03:31.750Z,1015.79
2017-10-26T09:04:31.737Z,1015.84
2017-10-26T09:05:31.740Z,1015.83
2017-10-26T09:06:31.710Z,1015.83
2017-10-26T09:07:31.698Z,1015.86
2017-10-26T09:08:31.686Z,1015.77
2017-10-26T09:09:31.673Z,1015.77
2017-10-26T09:10:31.666Z,1015.78
2017-10-26T09:11:31.650Z,1015.73
2017-10-26T09:12:31.640Z,1015.73
2017-10-26T09:13:31.625Z,1015.74
2017-10-26T09:14:31.611Z,1015.74
2017-10-26T09:15:31.599Z,1015.77
2017-10-26T09:16:31.586Z,1015.76
2017-10-26T09:17:31.575Z,1015.75
2017-10-26T09:18:31.564Z,1015.67
2017-10-26T09:19:31.551Z,1015.66
2017-10-26T09:20:31.538Z,1015.73
2017-10-26T09:21:31.525Z,1015.72
2017-10-26T09:22:31.514Z,1015.67
2017-10-26T09:23:31.501Z,1015.69
2017-10-26T09:24:31.487Z,1015.66
2017-10-26T09:25:31.474Z,1015.66
2017-10-26T09:26:31.665Z,1015.65
2017-10-26T09:27:31.449Z,1015.69
2017-10-26T09:28:31.437Z,1015.72
2017-10-26T09:29:31.427Z,1015.7
2017-10-26T09:30:31.413Z,1015.71
2017-10-26T09:31:31.401Z,1015.72
2017-10-26T09:32:31.388Z,1015.71
2017-10-26T09:33:31.379Z,1015.72
2017-10-26T09:34:31.363Z,1015.76
2017-10-26T09:35:31.354Z,1015.75
2017-10-26T09:36:31.339Z,1015.78
2017-10-26T09:37:31.325Z,1015.83
2017-10-26T09:38:31.327Z,1015.83
2017-10-26T09:39:31.300Z,1015.83
2017-10-26T09:40:31.290Z,1015.84
2017-10-26T09:41:31.276Z,1015.88
2017-10-26T09:42:31.263Z,1015.86
2017-10-26T09:43:31.250Z,1015.79
2017-10-26T09:44:31.240Z,1015.79
2017-10-26T09:45:31.233Z,1015.81
2017-10-26T09:46:31.214Z,1015.8
2017-10-26T09:47:31.201Z,1015.8
2017-10-26T09:48:31.189Z,1015.73
2017-10-26T09:49:31.179Z,1015.75
2017-10-26T09:50:31.166Z,1015.77
2017-10-26T09:51:31.153Z,1015.75
2017-10-26T09:52:31.141Z,1015.74
2017-10-26T09:53:31.131Z,1015.69
2017-10-26T09:54:31.116Z,1015.76
2017-10-26T09:55:31.107Z,1015.75
2017-10-26T09:56:31.092Z,1015.73
2017-10-26T09:57:31.082Z,1015.73
2017-10-26T09:58:31.078Z,1015.72
2017-10-26T09:59:31.058Z,1015.74
2017-10-26T10:00:31.045Z,1015.8
2017-10-26T10:01:31.036Z,1015.84
2017-10-26T10:02:31.022Z,1015.89
2017-10-26T10:03:31.013Z,1015.85
2017-10-26T10:04:31.003Z,1015.88
2017-10-26T10:05:30.987Z,1015.84
2017-10-26T10:06:30.976Z,1015.87
2017-10-26T10:07:30.968Z,1015.88
2017-10-26T10:08:30.953Z,1015.87
2017-10-26T10:09:30.945Z,1015.92
2017-10-26T10:10:30.935Z,1015.89
2017-10-26T10:11:30.939Z,1015.87
2017-10-26T10:12:30.911Z,1015.84
2017-10-26T10:13:30.900Z,1015.91
2017-10-26T10:14:30.891Z,1015.91
2017-10-26T10:15:30.876Z,1015.93
2017-10-26T10:16:30.866Z,1015.96
2017-10-26T10:17:30.857Z,1015.92
2017-10-26T10:18:30.843Z,1015.95
2017-10-26T10:19:30.831Z,1015.92
2017-10-26T10:20:30.820Z,1015.91
2017-10-26T10:21:30.810Z,1015.84
2017-10-26T10:22:30.800Z,1015.8
2017-10-26T10:23:30.790Z,1015.8
2017-10-26T10:24:30.776Z,1015.83
2017-10-26T10:25:30.766Z,1015.79
2017-10-26T10:26:30.753Z,1015.8
2017-10-26T10:27:30.742Z,1015.78
2017-10-26T10:28:30.732Z,1015.8
2017-10-26T10:29:30.720Z,1015.83
2017-10-26T10:30:30.710Z,1015.89
2017-10-26T10:31:30.697Z,1015.84
2017-10-26T10:32:30.687Z,1015.86
2017-10-26T10:33:30.676Z,1015.89
2017-10-26T10:34:30.667Z,1015.85
2017-10-26T10:35:30.655Z,1015.89
2017-10-26T10:36:30.643Z,1015.83
2017-10-26T10:37:30.630Z,1015.8
2017-10-26T10:38:30.620Z,1015.8
2017-10-26T10:39:30.607Z,1015.78
2017-10-26T10:40:30.597Z,1015.76
2017-10-26T10:41:30.587Z,1015.78
2017-10-26T10:42:30.576Z,1015.75
2017-10-26T10:43:30.562Z,1015.74
2017-10-26T10:44:30.552Z,1015.72
2017-10-26T10:45:30.550Z,1015.7
2017-10-26T10:46:30.529Z,1015.72
2017-10-26T10:47:30.518Z,1015.73
2017-10-26T10:48:30.505Z,1015.72
2017-10-26T10:49:30.495Z,1015.69
2017-10-26T10:50:30.484Z,1015.67
2017-10-26T10:51:30.473Z,1015.66
2017-10-26T10:52:30.463Z,1015.64
2017-10-26T10:53:30.451Z,1015.66
2017-10-26T10:54:30.447Z,1015.66
2017-10-26T10:55:30.431Z,1015.64
2017-10-26T10:56:30.422Z,1015.64
2017-10-26T10:57:30.412Z,1015.61
2017-10-26T10:58:30.402Z,1015.6
2017-10-26T10:59:30.416Z,1015.56
2017-10-26T11:00:30.386Z,1015.57
2017-10-26T11:01:30.376Z,1015.57
2017-10-26T11:02:30.363Z,1015.6
2017-10-26T11:03:30.352Z,1015.52
2017-10-26T11:04:30.350Z,1015.53
2017-10-26T11:05:30.334Z,1015.59
2017-10-26T11:06:30.323Z,1015.56
2017-10-26T11:07:30.315Z,1015.55
2017-10-26T11:08:30.304Z,1015.52
2017-10-26T11:09:30.297Z,1015.48
2017-10-26T11:10:30.286Z,1015.49
2017-10-26T11:11:30.277Z,1015.5
2017-10-26T11:12:30.271Z,1015.44
2017-10-26T11:13:30.260Z,1015.41
2017-10-26T11:14:30.253Z,1015.5
2017-10-26T11:15:30.242Z,1015.48
2017-10-26T11:16:30.235Z,1015.46
2017-10-26T11:17:30.225Z,1015.45
2017-10-26T11:18:30.216Z,1015.43
2017-10-26T11:19:30.209Z,1015.41
2017-10-26T11:20:30.198Z,1015.37
2017-10-26T11:21:30.187Z,1015.44
2017-10-26T11:22:30.179Z,1015.39
2017-10-26T11:23:30.174Z,1015.38
2017-10-26T11:24:30.161Z,1015.35
2017-10-26T11:25:30.155Z,1015.37
2017-10-26T11:26:30.348Z,1015.42
2017-10-26T11:27:30.137Z,1015.42
2017-10-26T11:28:30.132Z,1015.36
2017-10-26T11:29:30.127Z,1015.37
2017-10-26T11:30:30.115Z,1015.33
2017-10-26T11:31:30.106Z,1015.37
2017-10-26T11:32:30.099Z,1015.34
2017-10-26T11:33:30.087Z,1015.32
2017-10-26T11:34:30.082Z,1015.34
2017-10-26T11:35:30.078Z,1015.38
2017-10-26T11:36:30.065Z,1015.38
2017-10-26T11:37:30.055Z,1015.44
2017-10-26T11:38:30.047Z,1015.37
2017-10-26T11:39:30.042Z,1015.34
2017-10-26T11:40:30.031Z,1015.35
2017-10-26T11:41:30.025Z,1015.27
2017-10-26T11:42:30.015Z,1015.21
2017-10-26T11:43:30.006Z,1015.22
2017-10-26T11:44:30.001Z,1015.24
2017-10-26T11:45:29.989Z,1015.24
2017-10-26T11:46:29.982Z,1015.2
2017-10-26T11:47:29.975Z,1015.16
2017-10-26T11:48:29.966Z,1015.21
2017-10-26T11:49:29.957Z,1015.19
2017-10-26T11:50:29.951Z,1015.26
2017-10-26T11:51:29.940Z,1015.14
2017-10-26T11:52:29.934Z,1015.19
2017-10-26T11:53:29.926Z,1015.21
2017-10-26T11:54:29.924Z,1015.23
2017-10-26T11:55:29.911Z,1015.25
2017-10-26T11:56:29.906Z,1015.29
2017-10-26T11:57:29.897Z,1015.25
2017-10-26T11:58:29.888Z,1015.31
2017-10-26T11:59:29.880Z,1015.35
2017-10-26T12:00:29.873Z,1015.34
2017-10-26T12:01:29.869Z,1015.32
2017-10-26T12:02:29.856Z,1015.34
2017-10-26T12:03:29.849Z,1015.32
2017-10-26T12:04:29.842Z,1015.33
2017-10-26T12:05:29.832Z,1015.23
2017-10-26T12:06:29.825Z,1015.2
2017-10-26T12:07:29.829Z,1015.16
2017-10-26T12:08:29.816Z,1015.18